Time;durP1;ratioP1;P1;durP2;ratioP2;P2;SDS_P1;SDS_P2;PMS_P1;PMS_P2;Temp;Humidity;BMP_temperature;BMP_pressure;BME280_temperature;BME280_humidity;BME280_pressure;Samples;Min_cycle;Max_cycle;Signal;HPM_P1;HPM_P2
2021/12/05 00:17:48;;;;;;;26.67;13.98;;;;;;;4.28;59.97;98796.00;4442460;32;32030;-76
2021/12/05 00:23:16;;;;;;;25.83;14.70;;;;;;;4.24;60.27;98797.41;4452963;32;34426;-76
2021/12/05 00:25:49;;;;;;;29.10;14.43;;;;;;;4.23;60.53;98795.75;4453287;32;33852;-76
2021/12/05 01:00:49;;;;;;;39.10;22.05;;;;;;;3.39;63.86;98788.09;4451727;32;33494;-77
2021/12/05 01:16:42;;;;;;;;;;;;;;;3.73;63.10;98788.41;4453477;32;32916;-76
2021/12/05 01:19:13;;;;;;;48.40;31.55;;;;;;;3.86;62.70;98790.47;4442247;32;33870;-76
2021/12/05 01:21:43;;;;;;;41.58;27.67;;;;;;;4.00;62.68;98789.59;4454631;32;32886;-76
2021/12/05 01:24:26;;;;;;;34.53;20.70;;;;;;;3.81;63.40;98772.03;4442149;32;33755;-76
2021/12/05 01:32:36;;;;;;;81.57;41.80;;;;;;;4.05;62.44;98772.72;4455068;32;34032;-76
2021/12/05 01:35:30;;;;;;;40.72;23.12;;;;;;;3.69;63.56;98769.97;4431596;32;32144;-76
2021/12/05 01:38:05;;;;;;;39.33;20.33;;;;;;;3.86;63.25;98777.75;4443727;32;33999;-76
2021/12/05 01:40:56;;;;;;;35.80;21.33;;;;;;;3.79;63.84;98781.41;4443006;32;34701;-76
2021/12/05 02:35:00;;;;;;;35.03;21.37;;;;;;;3.53;66.55;98735.75;4469833;32;34011;-76
2021/12/05 02:40:26;;;;;;;37.38;21.45;;;;;;;3.38;67.24;98719.47;4458843;32;32579;-76
2021/12/05 02:45:28;;;;;;;37.03;20.00;;;;;;;3.53;66.87;98720.31;4469974;32;34814;-76
2021/12/05 02:47:55;;;;;;;37.67;21.37;;;;;;;3.44;67.29;98726.00;4456655;32;31871;-76
2021/12/05 02:50:26;;;;;;;39.17;21.87;;;;;;;3.53;66.89;98714.88;4456774;32;33835;-76
2021/12/05 02:52:59;;;;;;;39.17;21.83;;;;;;;3.37;67.42;98708.81;4456987;32;34886;-76
2021/12/05 02:55:36;;;;;;;36.03;19.48;;;;;;;3.57;66.76;98715.34;4457557;32;33961;-76
2021/12/05 03:03:32;;;;;;;38.80;21.67;;;;;;;3.48;67.11;98717.31;4456949;32;33182;-76
2021/12/05 03:06:10;;;;;;;38.85;20.67;;;;;;;3.61;66.92;98735.66;4469522;32;34069;-76
2021/12/05 03:08:42;;;;;;;36.15;21.10;;;;;;;3.84;66.17;98721.97;4469465;32;33656;-77
2021/12/05 03:11:13;;;;;;;38.35;21.62;;;;;;;3.51;67.02;98722.38;4469732;32;33622;-77
2021/12/05 03:13:42;;;;;;;38.13;20.75;;;;;;;3.67;66.72;98734.06;4456892;32;35258;-77
2021/12/05 03:16:11;;;;;;;39.35;22.13;;;;;;;3.77;66.57;98732.75;4456565;32;33187;-76
2021/12/05 03:18:39;;;;;;;37.88;21.90;;;;;;;3.70;66.53;98728.25;4456353;32;32651;-76
2021/12/05 03:21:08;;;;;;;40.72;23.83;;;;;;;3.89;65.99;98730.38;4469646;32;34527;-76
2021/12/05 03:23:38;;;;;;;44.67;24.55;;;;;;;3.77;66.62;98727.31;4456827;32;35277;-76
2021/12/05 03:26:09;;;;;;;77.15;47.83;;;;;;;3.92;65.94;98717.25;4469268;32;34730;-76
2021/12/05 03:28:38;;;;;;;174.90;99.22;;;;;;;3.70;66.83;98725.53;4456773;32;33456;-76
2021/12/05 03:31:06;;;;;;;114.37;71.65;;;;;;;3.73;66.85;98734.16;4456332;32;32217;-76
2021/12/05 03:33:35;;;;;;;52.15;31.23;;;;;;;3.85;66.25;98740.78;4468605;32;33951;-76
2021/12/05 03:36:07;;;;;;;42.33;23.87;;;;;;;3.88;66.26;98736.84;4469644;32;33854;-76
2021/12/05 03:38:40;;;;;;;38.65;21.80;;;;;;;3.99;65.96;98733.59;4469491;32;33354;-76
2021/12/05 03:41:11;;;;;;;109.63;51.15;;;;;;;4.06;65.79;98737.25;4456655;32;33852;-76
2021/12/05 03:43:41;;;;;;;44.33;25.60;;;;;;;4.15;65.54;98736.09;4469362;32;34459;-76
2021/12/05 03:46:09;;;;;;;39.95;23.10;;;;;;;4.08;65.59;98729.75;4456389;32;33711;-76
2021/12/05 03:48:46;;;;;;;40.78;22.73;;;;;;;4.24;65.13;98728.69;4456347;32;33368;-76
2021/12/05 03:51:17;;;;;;;36.60;21.10;;;;;;;4.18;65.29;98730.28;4456401;32;33284;-76
2021/12/05 03:53:49;;;;;;;36.95;20.92;;;;;;;4.14;65.37;98720.84;4470565;32;35207;-76
2021/12/05 03:56:20;;;;;;;38.38;20.30;;;;;;;3.94;66.00;98731.47;4456263;32;34077;-76
2021/12/05 03:58:50;;;;;;;45.72;26.02;;;;;;;4.10;65.71;98727.69;4469185;32;34039;-76
2021/12/05 04:01:20;;;;;;;255.40;82.57;;;;;;;4.00;65.94;98726.31;4456402;32;34335;-76
2021/12/05 04:03:48;;;;;;;48.72;27.15;;;;;;;3.94;66.07;98733.34;4456288;32;33051;-76
2021/12/05 04:06:19;;;;;;;42.72;23.52;;;;;;;3.84;66.31;98721.97;4456597;32;34526;-76
2021/12/05 04:08:49;;;;;;;36.75;23.02;;;;;;;3.95;66.07;98730.44;4470368;32;34360;-76
2021/12/05 04:11:28;;;;;;;40.30;21.95;;;;;;;3.93;66.19;98739.78;4456423;32;34554;-76
2021/12/05 04:13:56;;;;;;;36.75;21.92;;;;;;;3.95;66.04;98737.75;4456433;32;34021;-76
2021/12/05 04:16:25;;;;;;;43.13;25.55;;;;;;;4.12;65.71;98731.06;4442707;32;32523;-76
2021/12/05 04:18:53;;;;;;;42.05;23.92;;;;;;;3.88;66.37;98731.41;4443496;32;31726;-76
2021/12/05 04:21:21;;;;;;;49.10;27.80;;;;;;;3.89;66.57;98731.22;4456274;32;33577;-76
2021/12/05 04:23:49;;;;;;;39.40;22.83;;;;;;;3.88;66.40;98728.69;4456193;32;33317;-76
2021/12/05 04:26:19;;;;;;;39.40;22.67;;;;;;;4.10;65.77;98726.84;4456739;32;33833;-76
2021/12/05 04:28:47;;;;;;;39.45;21.62;;;;;;;4.00;66.17;98729.88;4456200;32;34048;-76
2021/12/05 04:31:20;;;;;;;36.72;20.98;;;;;;;4.13;65.55;98735.44;4443538;32;33206;-76
2021/12/05 04:33:52;;;;;;;38.13;20.85;;;;;;;4.04;65.96;98728.44;4469221;32;34341;-76
2021/12/05 04:36:23;;;;;;;34.55;20.77;;;;;;;4.07;65.79;98728.06;4455967;32;32520;-76
2021/12/05 04:38:51;;;;;;;38.65;21.15;;;;;;;4.03;65.99;98732.19;4468976;32;33512;-76
2021/12/05 04:41:20;;;;;;;36.45;20.73;;;;;;;3.99;66.21;98733.59;4468898;32;33816;-76
2021/12/05 04:43:52;;;;;;;34.10;20.15;;;;;;;4.18;65.67;98730.28;4456397;32;35152;-76
2021/12/05 04:46:24;;;;;;;37.65;20.65;;;;;;;4.16;65.72;98732.34;4455990;32;34240;-76
2021/12/05 04:48:55;;;;;;;38.88;21.55;;;;;;;4.25;65.65;98720.34;4456058;32;32717;-76
2021/12/05 04:51:35;;;;;;;40.53;21.98;;;;;;;4.25;65.62;98725.78;4455054;32;34355;-76
2021/12/05 04:54:06;;;;;;;37.88;22.17;;;;;;;4.28;65.25;98728.09;4468614;32;34137;-76
2021/12/05 04:56:35;;;;;;;39.50;22.45;;;;;;;4.21;65.54;98724.47;4455945;32;32531;-76
2021/12/05 04:59:12;;;;;;;35.78;22.58;;;;;;;4.21;65.75;98727.19;4443174;32;32766;-76
2021/12/05 05:01:47;;;;;;;42.20;24.00;;;;;;;4.32;65.22;98722.28;4456327;32;31872;-76
2021/12/05 05:04:27;;;;;;;40.38;21.52;;;;;;;3.87;66.44;98727.03;4456086;32;34394;-76
2021/12/05 05:07:01;;;;;;;40.40;22.15;;;;;;;4.03;66.44;98726.78;4444095;32;33398;-76
2021/12/05 05:09:31;;;;;;;39.92;22.90;;;;;;;4.21;65.76;98713.63;4468564;32;33457;-76
2021/12/05 05:12:00;;;;;;;42.30;23.70;;;;;;;4.29;65.62;98715.38;4468453;32;33604;-77
2021/12/05 05:14:28;;;;;;;65.75;41.30;;;;;;;4.24;65.57;98726.81;4455750;32;34360;-76
2021/12/05 05:16:56;;;;;;;42.35;24.98;;;;;;;4.10;66.18;98730.41;4455378;32;33420;-76
2021/12/05 05:19:29;;;;;;;39.80;22.55;;;;;;;4.32;65.41;98733.16;4455785;32;32722;-76
2021/12/05 05:43:27;;;;;;;45.10;22.73;;;;;;;4.55;65.10;98744.69;4468307;32;33872;-76
2021/12/05 05:46:16;;;;;;;41.08;23.30;;;;;;;4.48;65.24;98735.63;4443824;32;32858;-76
2021/12/05 05:48:50;;;;;;;44.17;23.45;;;;;;;4.48;65.36;98736.47;4454654;32;33526;-76
2021/12/05 05:51:18;;;;;;;41.72;22.48;;;;;;;4.43;65.35;98740.81;4455275;32;32848;-76
2021/12/05 05:53:48;;;;;;;42.30;22.55;;;;;;;4.51;65.34;98738.81;4455082;32;34493;-76
2021/12/05 05:56:24;;;;;;;42.65;22.35;;;;;;;4.30;65.70;98728.75;4455064;32;33027;-76
2021/12/05 05:59:01;;;;;;;46.45;25.08;;;;;;;4.42;65.65;98730.97;4455814;32;33994;-76
2021/12/05 06:04:04;;;;;;;53.55;29.15;;;;;;;4.55;65.38;98741.97;4467632;32;33769;-76
2021/12/05 06:06:32;;;;;;;58.67;31.15;;;;;;;4.37;65.72;98744.28;4469947;32;34834;-76
2021/12/05 06:09:01;;;;;;;50.53;28.67;;;;;;;4.51;65.50;98755.09;4470668;32;34111;-76
2021/12/05 06:11:29;;;;;;;45.95;25.12;;;;;;;4.56;65.34;98757.22;4457078;32;31733;-76
2021/12/05 06:13:57;;;;;;;42.08;23.30;;;;;;;4.50;65.67;98750.69;4457111;32;32552;-76
2021/12/05 06:16:24;;;;;;;44.97;23.55;;;;;;;4.50;65.50;98748.00;4469699;32;35476;-76
2021/12/05 06:18:53;;;;;;;50.47;24.55;;;;;;;4.49;65.80;98754.47;4457032;32;32310;-76
2021/12/05 06:21:20;;;;;;;44.65;25.35;;;;;;;4.47;65.88;98756.53;4456953;32;34301;-76
2021/12/05 06:23:48;;;;;;;49.75;25.48;;;;;;;4.39;66.13;98762.06;4456919;32;32082;-76
2021/12/05 06:26:21;;;;;;;45.97;25.15;;;;;;;4.48;65.86;98763.63;4457089;32;34404;-76
2021/12/05 06:29:10;;;;;;;45.12;23.77;;;;;;;4.47;65.96;98761.97;4457326;32;34778;-76
2021/12/05 06:47:34;;;;;;;53.13;26.00;;;;;;;4.18;67.11;98751.19;4469628;32;33797;-75
2021/12/05 06:50:02;;;;;;;46.15;25.02;;;;;;;4.40;66.61;98755.59;4456368;32;35063;-75
2021/12/05 06:52:47;;;;;;;51.00;26.05;;;;;;;4.43;66.56;98759.81;4447074;32;31708;-75
2021/12/05 06:55:16;;;;;;;51.00;28.00;;;;;;;4.51;66.27;98774.13;4456861;32;33726;-75
2021/12/05 06:57:45;;;;;;;65.68;33.63;;;;;;;4.51;66.18;98770.56;4456498;32;33031;-76
2021/12/05 07:00:22;;;;;;;55.97;28.05;;;;;;;4.54;66.18;98778.34;4456724;32;34001;-76
2021/12/05 07:02:49;;;;;;;53.67;28.17;;;;;;;4.12;67.61;98779.94;4469390;32;33440;-76
2021/12/05 07:05:39;;;;;;;49.33;25.23;;;;;;;4.53;66.34;98787.50;4456544;32;33787;-75
2021/12/05 07:08:08;;;;;;;49.15;24.12;;;;;;;4.44;66.72;98788.66;4458503;32;34262;-75
2021/12/05 07:10:46;;;;;;;51.78;26.42;;;;;;;4.48;66.89;98795.41;4456529;32;33371;-75
2021/12/05 07:40:23;;;;;;;48.05;26.08;;;;;;;4.76;66.38;98790.03;4469482;32;33862;-75
2021/12/05 07:40:33;;;;;;;55.70;27.20;;;;;;;4.63;67.00;98774.44;4469520;32;34283;-76
2021/12/05 07:43:06;;;;;;;55.25;28.85;;;;;;;4.60;67.02;98804.69;4456425;32;34780;-76
2021/12/05 07:45:48;;;;;;;59.15;29.90;;;;;;;4.64;66.67;98808.72;4469075;32;33543;-76
2021/12/05 07:48:20;;;;;;;57.53;31.05;;;;;;;4.85;66.05;98810.63;4457476;32;33944;-76
2021/12/05 07:51:05;;;;;;;61.67;28.48;;;;;;;4.84;66.15;98807.06;4456414;32;35224;-75
2021/12/05 07:53:46;;;;;;;54.38;27.77;;;;;;;4.81;66.34;98796.56;4457528;32;34629;-75
2021/12/05 07:56:21;;;;;;;53.55;26.95;;;;;;;4.94;65.92;98806.72;4457413;32;34023;-75
2021/12/05 08:15:32;;;;;;;52.45;26.02;;;;;;;4.93;65.75;98818.66;4469210;32;34151;-75
2021/12/05 08:18:00;;;;;;;99.15;41.50;;;;;;;4.81;68.61;98812.87;4456678;32;33656;-75
2021/12/05 08:20:31;;;;;;;63.38;30.75;;;;;;;4.91;67.12;98818.00;4456335;32;33726;-75
2021/12/05 08:23:00;;;;;;;55.72;27.33;;;;;;;4.91;66.62;98815.28;4454985;32;32925;-75
2021/12/05 08:25:30;;;;;;;55.45;27.75;;;;;;;5.02;65.99;98822.06;4468735;32;33880;-75
2021/12/05 08:28:14;;;;;;;58.03;29.15;;;;;;;5.06;65.63;98812.50;4468090;32;33216;-75
2021/12/05 08:30:44;;;;;;;57.50;29.42;;;;;;;5.16;65.37;98816.56;4457223;32;33779;-75
2021/12/05 08:36:20;;;;;;;53.78;27.35;;;;;;;5.23;65.10;98822.88;4468927;32;33918;-75
2021/12/05 08:41:43;;;;;;;61.72;31.17;;;;;;;5.17;64.95;98817.41;4469121;32;33955;-76
2021/12/05 09:28:04;;;;;;;64.32;31.45;;;;;;;4.51;67.85;98795.84;4461217;32;34216;-75
2021/12/05 10:09:17;;;;;;;64.00;33.67;;;;;;;5.53;66.37;98762.84;4460173;32;32696;-76
2021/12/05 10:12:15;;;;;;;52.95;24.48;;;;;;;5.58;65.79;98772.09;4446521;32;34129;-75
2021/12/05 10:14:55;;;;;;;66.57;26.60;;;;;;;5.65;72.84;98763.97;4448137;32;202278;-76
2021/12/05 10:33:52;;;;;;;55.45;29.52;;;;;;;5.81;64.66;98773.69;4469235;32;32861;-78
2021/12/05 10:36:25;;;;;;;57.75;28.40;;;;;;;5.75;66.13;98761.72;4445377;32;32696;-76
2021/12/05 10:38:59;;;;;;;57.85;25.55;;;;;;;5.44;66.01;98756.69;4454108;32;31921;-76
2021/12/05 10:44:05;;;;;;;52.22;27.27;;;;;;;5.57;65.36;98758.69;4458450;32;35119;-77
2021/12/05 10:46:34;;;;;;;61.17;29.27;;;;;;;5.67;65.09;98741.97;4456894;32;34082;-76
2021/12/05 10:49:08;;;;;;;61.63;29.35;;;;;;;5.28;66.27;98749.69;4468900;32;34129;-76
2021/12/05 10:51:48;;;;;;;61.33;29.25;;;;;;;5.46;65.39;98754.62;4456888;32;34484;-75
2021/12/05 10:54:17;;;;;;;61.35;29.40;;;;;;;5.41;65.66;98751.66;4463697;32;33770;-74
2021/12/05 10:56:51;;;;;;;72.78;33.85;;;;;;;5.44;65.74;98748.53;4454197;32;33942;-74
2021/12/05 10:59:23;;;;;;;67.62;30.85;;;;;;;5.41;65.96;98739.94;4454464;32;34032;-74
2021/12/05 11:02:03;;;;;;;105.40;42.67;;;;;;;5.55;65.60;98749.88;4454162;32;33876;-75
2021/12/05 11:04:34;;;;;;;77.32;38.75;;;;;;;5.45;65.78;98738.50;4453950;32;34499;-74
2021/12/05 11:07:09;;;;;;;102.32;63.20;;;;;;;5.24;66.04;98740.22;4454077;32;33770;-77
2021/12/05 11:09:39;;;;;;;59.28;28.20;;;;;;;4.40;69.18;98738.47;4447408;32;32605;-77
2021/12/05 11:12:24;;;;;;;75.43;36.13;;;;;;;5.75;79.33;98729.06;4464390;32;32240;-76
2021/12/05 11:14:56;;;;;;;67.68;31.90;;;;;;;5.13;69.46;98731.81;4442862;32;34384;-76
2021/12/05 11:17:25;;;;;;;55.30;27.20;;;;;;;5.47;67.67;98731.81;4436124;32;34201;-76
2021/12/05 11:20:02;;;;;;;60.15;27.75;;;;;;;5.21;67.35;98734.34;4436627;32;32689;-76
2021/12/05 11:22:34;;;;;;;53.47;24.23;;;;;;;5.01;67.68;98733.38;4448861;32;32161;-76
2021/12/05 11:25:06;;;;;;;56.00;25.35;;;;;;;4.94;67.43;98747.75;4457145;32;34821;-76
2021/12/05 11:27:40;;;;;;;55.45;26.42;;;;;;;5.30;66.73;98741.31;4451478;32;33634;-77
2021/12/05 11:30:13;;;;;;;58.67;26.08;;;;;;;5.15;67.14;98754.22;4469083;32;33981;-77
2021/12/05 11:32:52;;;;;;;54.80;25.77;;;;;;;5.16;69.22;98745.00;4469299;32;34014;-77
2021/12/05 11:35:25;;;;;;;91.28;48.72;;;;;;;5.04;67.83;98733.00;4461925;32;32883;-76
2021/12/05 11:37:53;;;;;;;63.58;29.15;;;;;;;4.89;68.01;98731.19;4454266;32;33973;-77
2021/12/05 11:40:23;;;;;;;57.22;29.33;;;;;;;4.41;69.42;98734.72;4461182;32;33274;-76
2021/12/05 11:42:59;;;;;;;62.28;29.75;;;;;;;4.68;68.72;98733.94;4458946;32;33747;-77
2021/12/05 11:45:28;;;;;;;55.72;26.67;;;;;;;5.44;76.82;98737.66;4448056;32;34533;-76
2021/12/05 11:47:57;;;;;;;50.03;24.23;;;;;;;5.19;72.24;98747.34;4461959;32;35217;-77
2021/12/05 11:50:36;;;;;;;63.17;31.55;;;;;;;5.08;69.49;98748.72;4462094;32;34305;-77
2021/12/05 11:53:04;;;;;;;57.47;27.13;;;;;;;5.18;68.36;98737.50;4465538;32;33303;-78
2021/12/05 11:55:32;;;;;;;56.33;26.80;;;;;;;4.64;68.85;98733.47;4461833;32;35050;-77
2021/12/05 11:58:00;;;;;;;54.13;25.90;;;;;;;4.96;67.91;98733.97;4448470;32;34589;-77
2021/12/05 12:00:28;;;;;;;49.15;24.83;;;;;;;5.01;67.38;98730.66;4457192;32;32028;-79
2021/12/05 12:02:57;;;;;;;50.97;24.30;;;;;;;4.89;67.70;98733.91;4448488;32;33964;-77
2021/12/05 12:05:32;;;;;;;50.65;23.73;;;;;;;4.76;68.06;98735.66;4449111;32;34443;-77
2021/12/05 12:08:10;;;;;;;49.60;23.52;;;;;;;4.88;67.39;98721.34;4463647;32;34642;-76
2021/12/05 12:10:46;;;;;;;48.25;21.80;;;;;;;4.71;68.01;98725.38;4447243;32;33440;-77
2021/12/05 12:13:23;;;;;;;50.83;24.67;;;;;;;4.50;68.64;98739.00;4468752;32;34677;-76
2021/12/05 12:16:00;;;;;;;46.00;22.08;;;;;;;4.77;67.79;98753.66;4447912;32;32825;-76
2021/12/05 12:18:34;;;;;;;49.95;24.05;;;;;;;4.49;68.85;98753.63;4451876;32;34178;-77
2021/12/05 12:21:06;;;;;;;52.97;23.30;;;;;;;4.52;68.43;98747.78;4452324;32;32953;-76
2021/12/05 12:23:34;;;;;;;94.87;41.08;;;;;;;3.44;71.83;98748.56;4462829;32;33578;-76
2021/12/05 12:26:04;;;;;;;67.85;29.63;;;;;;;3.70;72.36;98750.81;4441951;32;32993;-76
2021/12/05 12:28:31;;;;;;;52.50;25.52;;;;;;;3.66;72.01;98757.63;4458092;32;34595;-76
2021/12/05 12:31:05;;;;;;;49.53;25.40;;;;;;;3.56;72.95;98752.47;4458706;32;32915;-76
2021/12/05 12:33:38;;;;;;;53.33;24.95;;;;;;;3.74;71.77;98752.09;4454889;32;33551;-76
2021/12/05 12:36:05;;;;;;;66.65;29.90;;;;;;;3.69;72.42;98740.97;4453588;32;35289;-76
2021/12/05 12:38:38;;;;;;;57.15;25.62;;;;;;;3.75;72.16;98723.94;4455225;32;34831;-76
2021/12/05 12:41:24;;;;;;;50.35;23.80;;;;;;;3.79;72.58;98727.13;4455782;32;33584;-76
2021/12/05 12:43:55;;;;;;;51.40;24.85;;;;;;;4.16;71.05;98729.66;4442598;32;33650;-76
2021/12/05 12:46:40;;;;;;;48.40;23.02;;;;;;;4.31;70.39;98726.88;4440103;32;34172;-77
2021/12/05 12:49:13;;;;;;;47.50;22.35;;;;;;;4.45;69.81;98727.87;4452749;32;34804;-77
2021/12/05 12:51:43;;;;;;;48.22;21.23;;;;;;;4.34;70.20;98733.81;4454030;32;33570;-74
2021/12/05 12:54:24;;;;;;;47.88;23.42;;;;;;;4.17;70.61;98739.47;4467819;32;33745;-74
2021/12/05 12:57:00;;;;;;;46.22;21.52;;;;;;;4.18;70.54;98733.00;4468709;32;34599;-74
2021/12/05 12:59:30;;;;;;;45.17;21.83;;;;;;;4.47;69.48;98733.94;4469483;32;34027;-74
2021/12/05 13:02:27;;;;;;;42.72;20.40;;;;;;;4.37;69.70;98722.56;4468454;32;33462;-74
2021/12/05 13:10:42;;;;;;;59.38;26.85;;;;;;;4.63;68.95;98707.34;4434673;32;33577;-75
2021/12/05 13:13:15;;;;;;;49.30;23.85;;;;;;;4.44;69.32;98710.72;4467430;32;34238;-75
2021/12/05 13:15:53;;;;;;;52.38;26.05;;;;;;;4.64;68.77;98698.16;4468167;32;33711;-75
2021/12/05 13:18:26;;;;;;;65.50;31.30;;;;;;;4.64;68.69;98705.47;4444347;32;33892;-73
2021/12/05 13:20:57;;;;;;;47.08;22.33;;;;;;;4.41;69.22;98699.41;4446982;32;34105;-76
2021/12/05 13:23:27;;;;;;;53.63;24.95;;;;;;;4.16;70.38;98691.63;4454526;32;33321;-75
2021/12/05 13:26:02;;;;;;;47.47;23.45;;;;;;;4.12;71.07;98697.63;4446700;32;32189;-76
2021/12/05 13:28:52;;;;;;;46.83;22.50;;;;;;;3.83;72.81;98679.56;4466673;32;34794;-75
2021/12/05 13:31:32;;;;;;;51.65;24.25;;;;;;;4.22;71.12;98676.44;4447482;32;33882;-76
2021/12/05 13:34:31;;;;;;;53.03;23.50;;;;;;;3.35;74.23;98672.91;4456958;32;33713;-75
2021/12/05 13:37:00;;;;;;;51.50;22.60;;;;;;;4.14;71.67;98662.97;4455202;32;33809;-76
2021/12/05 13:39:33;;;;;;;46.70;22.35;;;;;;;3.90;72.51;98651.44;4442394;32;35315;-76
2021/12/05 13:42:00;;;;;;;44.05;22.27;;;;;;;4.18;71.62;98643.41;4445282;32;32783;-76
2021/12/05 13:44:56;;;;;;;46.72;23.38;;;;;;;4.51;70.66;98659.19;4459735;32;33523;-76
2021/12/05 13:47:32;;;;;;;53.85;24.30;;;;;;;4.21;71.45;98647.59;4450430;32;34540;-76
2021/12/05 13:50:18;;;;;;;46.80;22.40;;;;;;;4.16;71.87;98650.06;4452104;32;34540;-76
2021/12/05 13:53:02;;;;;;;45.08;22.33;;;;;;;4.04;72.13;98668.72;4453848;32;33994;-76
2021/12/05 13:55:39;;;;;;;51.50;22.00;;;;;;;3.70;73.32;98674.81;4464462;32;33151;-76
2021/12/05 13:58:28;;;;;;;53.97;24.33;;;;;;;3.89;72.79;98679.66;4462690;32;33136;-79
2021/12/05 14:01:24;;;;;;;59.50;25.50;;;;;;;4.17;71.68;98677.03;4461932;32;34415;-75
2021/12/05 14:03:56;;;;;;;59.55;24.85;;;;;;;4.53;72.83;98685.13;4450828;32;34101;-75
2021/12/05 14:06:42;;;;;;;61.00;26.05;;;;;;;4.42;71.97;98684.78;4466332;32;33880;-75
2021/12/05 14:09:40;;;;;;;64.90;28.65;;;;;;;4.53;71.05;98695.13;4467635;32;35106;-75
2021/12/05 14:12:14;;;;;;;;;;;;;;;4.66;70.44;98697.94;4453720;32;35261;-75
2021/12/05 14:14:49;;;;;;;75.00;38.00;;;;;;;4.83;69.82;98691.19;4468814;32;34367;-75
2021/12/05 14:17:19;;;;;;;66.03;27.80;;;;;;;4.46;71.05;98694.22;4435427;32;32175;-75
2021/12/05 14:19:59;;;;;;;103.00;40.05;;;;;;;3.72;73.12;98699.91;4455128;32;33667;-75
2021/12/05 14:22:30;;;;;;;79.47;29.73;;;;;;;4.13;72.54;98688.47;4453981;32;34024;-75
2021/12/05 14:25:11;;;;;;;71.82;30.27;;;;;;;4.20;72.15;98692.94;4454948;32;33859;-75
2021/12/05 14:27:47;;;;;;;76.43;28.62;;;;;;;4.15;71.92;98694.53;4461330;32;33260;-75
2021/12/05 14:30:21;;;;;;;74.50;29.02;;;;;;;4.15;71.97;98699.97;4449006;32;34392;-75
2021/12/05 14:32:57;;;;;;;67.57;29.60;;;;;;;4.21;71.81;98708.19;4470133;32;34340;-75
2021/12/05 14:35:29;;;;;;;;;;;;;;;4.27;71.79;98707.41;4463193;32;33935;-75
2021/12/05 14:37:57;;;;;;;75.00;26.35;;;;;;;4.49;70.99;98710.16;4436041;32;32809;-77
2021/12/05 14:40:30;;;;;;;76.45;27.90;;;;;;;4.41;71.28;98711.13;4460340;32;33734;-75
2021/12/05 14:43:03;;;;;;;65.03;25.67;;;;;;;4.47;70.78;98709.50;4462950;32;34463;-77
2021/12/05 14:45:37;;;;;;;65.05;26.35;;;;;;;4.54;70.78;98713.13;4453422;32;33396;-75
2021/12/05 14:48:10;;;;;;;51.85;19.92;;;;;;;4.46;70.72;98722.25;4450056;32;33598;-79
2021/12/05 14:50:51;;;;;;;79.97;28.83;;;;;;;4.61;78.46;98714.00;4462130;32;34717;-78
2021/12/05 14:53:24;;;;;;;67.93;27.27;;;;;;;4.94;74.81;98714.28;4452999;32;34373;-78
2021/12/05 14:55:58;;;;;;;108.30;42.67;;;;;;;4.45;72.77;98717.00;4449540;32;33446;-78
2021/12/05 14:58:28;;;;;;;83.25;31.80;;;;;;;5.02;70.78;98710.59;4441397;32;32077;-77
2021/12/05 15:00:58;;;;;;;80.00;32.00;;;;;;;4.54;71.15;98710.41;4441293;32;32230;-78
2021/12/05 15:03:28;;;;;;;67.45;27.73;;;;;;;4.78;70.37;98703.69;4443574;32;32921;-78
2021/12/05 15:06:01;;;;;;;78.60;29.10;;;;;;;4.85;69.88;98707.31;4456799;32;34659;-78
2021/12/05 15:08:30;;;;;;;79.00;30.23;;;;;;;4.32;71.55;98712.28;4453289;32;34353;-78
2021/12/05 15:11:01;;;;;;;78.10;28.67;;;;;;;4.55;70.74;98714.81;4426758;32;32043;-78
2021/12/05 15:13:29;;;;;;;72.40;29.65;;;;;;;4.67;70.17;98705.06;4456121;32;34012;-78
2021/12/05 15:15:58;;;;;;;78.35;28.08;;;;;;;4.63;70.84;98711.94;4469096;32;34657;-76
2021/12/05 15:18:29;;;;;;;75.87;30.00;;;;;;;4.72;70.01;98713.47;4443106;32;33179;-77
2021/12/05 15:20:58;;;;;;;86.12;31.67;;;;;;;4.54;70.58;98707.69;4452326;32;33058;-77
2021/12/05 15:23:29;;;;;;;77.07;28.50;;;;;;;4.09;72.70;98703.44;4443391;32;33953;-77
2021/12/05 15:26:03;;;;;;;79.97;29.45;;;;;;;4.50;71.25;98707.22;4469270;32;34110;-77
2021/12/05 15:28:32;;;;;;;72.43;27.30;;;;;;;4.22;72.24;98706.31;4456314;32;33006;-77
2021/12/05 15:31:00;;;;;;;73.18;26.80;;;;;;;4.37;71.47;98704.38;4435984;32;32164;-77
2021/12/05 15:33:28;;;;;;;78.62;28.30;;;;;;;4.28;71.90;98692.81;4451631;32;34429;-79
2021/12/05 15:35:58;;;;;;;70.90;26.27;;;;;;;4.20;72.31;98689.37;4455964;32;33898;-79
2021/12/05 15:38:30;;;;;;;88.07;28.70;;;;;;;3.78;73.62;98701.84;4469065;32;33476;-84
2021/12/05 15:41:02;;;;;;;148.57;52.62;;;;;;;4.01;73.00;98701.69;4463363;32;34646;-78
2021/12/05 15:43:33;;;;;;;288.40;85.53;;;;;;;3.85;73.34;98710.09;4455159;32;32867;-77
2021/12/05 15:46:04;;;;;;;145.50;47.55;;;;;;;3.49;74.56;98701.88;4456262;32;34044;-77
2021/12/05 15:48:34;;;;;;;189.27;58.90;;;;;;;4.02;73.22;98703.38;4443794;32;33065;-77
2021/12/05 15:51:05;;;;;;;196.02;63.20;;;;;;;3.75;74.01;98706.81;4446258;32;32078;-77
2021/12/05 15:53:35;;;;;;;207.50;69.93;;;;;;;3.98;73.55;98699.34;4443470;32;35111;-77
2021/12/05 15:56:06;;;;;;;272.17;95.10;;;;;;;4.10;73.21;98697.81;4453153;32;34670;-77
2021/12/05 15:58:57;;;;;;;205.30;68.90;;;;;;;4.00;73.29;98708.16;4452133;32;32876;-77
2021/12/05 16:01:26;;;;;;;190.23;65.28;;;;;;;3.84;73.74;98709.25;4455990;32;33728;-76
2021/12/05 16:03:57;;;;;;;113.45;42.53;;;;;;;3.98;73.87;98707.50;4466201;32;34283;-76
2021/12/05 16:06:33;;;;;;;69.03;29.33;;;;;;;4.18;72.62;98716.72;4442590;32;32553;-77
2021/12/05 16:09:27;;;;;;;86.30;33.05;;;;;;;4.23;72.40;98721.56;4469700;32;34071;-81
2021/12/05 16:12:09;;;;;;;77.72;30.95;;;;;;;4.20;72.77;98732.81;4446319;32;33661;-78
2021/12/05 16:14:42;;;;;;;73.10;28.77;;;;;;;4.30;72.90;98722.50;4458742;32;34386;-78
2021/12/05 16:17:14;;;;;;;114.32;44.67;;;;;;;4.37;72.56;98700.81;4461594;32;34087;-79
2021/12/05 16:20:03;;;;;;;72.65;30.37;;;;;;;4.35;72.42;98711.03;4443882;32;32017;-77
2021/12/05 16:22:30;;;;;;;73.72;28.62;;;;;;;4.47;71.80;98726.63;4440422;32;33335;-77
2021/12/05 16:25:16;;;;;;;69.00;27.98;;;;;;;4.69;71.36;98732.88;4441051;32;34467;-78
2021/12/05 16:27:51;;;;;;;79.03;28.30;;;;;;;4.83;73.29;98733.84;4455808;32;33948;-78
2021/12/05 16:30:24;;;;;;;72.57;28.33;;;;;;;4.44;72.41;98745.19;4456034;32;32697;-78
2021/12/05 16:32:53;;;;;;;71.18;25.75;;;;;;;4.79;71.15;98746.16;4455447;32;32262;-77
2021/12/05 16:35:29;;;;;;;60.08;25.02;;;;;;;5.02;70.45;98762.25;4455608;32;32804;-78
2021/12/05 16:37:57;;;;;;;69.93;25.60;;;;;;;5.33;74.35;98770.84;4468578;32;34044;-78
2021/12/05 16:40:25;;;;;;;62.72;25.37;;;;;;;5.25;72.11;98768.28;4455666;32;33397;-78
2021/12/05 16:43:08;;;;;;;62.08;23.83;;;;;;;5.19;70.71;98756.34;4468327;32;34040;-78
2021/12/05 16:45:38;;;;;;;60.78;24.75;;;;;;;4.80;70.20;98740.53;4453892;32;34049;-78
2021/12/05 16:48:06;;;;;;;64.75;24.73;;;;;;;4.86;70.29;98742.47;4452674;32;32603;-77
2021/12/05 16:50:33;;;;;;;65.60;24.20;;;;;;;4.89;70.41;98744.78;4454563;32;33519;-78
2021/12/05 16:53:01;;;;;;;70.22;26.35;;;;;;;5.11;69.85;98753.75;4455226;32;34468;-78
2021/12/05 16:55:30;;;;;;;55.90;25.25;;;;;;;5.22;69.32;98760.50;4442320;32;32960;-78
2021/12/05 16:58:16;;;;;;;60.38;24.20;;;;;;;5.16;69.40;98759.44;4467853;32;33872;-78
2021/12/05 17:00:50;;;;;;;64.37;24.10;;;;;;;4.85;70.08;98757.09;4455459;32;32032;-78
2021/12/05 17:03:23;;;;;;;57.75;24.63;;;;;;;5.17;69.00;98757.56;4456272;32;33992;-78
2021/12/05 17:05:54;;;;;;;57.33;25.00;;;;;;;5.14;69.19;98757.97;4443082;32;32945;-78
2021/12/05 17:08:24;;;;;;;54.97;23.98;;;;;;;5.22;69.22;98755.06;4455783;32;33882;-77
2021/12/05 17:11:00;;;;;;;53.97;22.87;;;;;;;5.17;69.08;98760.28;4455507;32;34570;-77
2021/12/05 17:13:39;;;;;;;55.47;22.60;;;;;;;5.28;68.95;98765.16;4455402;32;33788;-78
2021/12/05 17:16:19;;;;;;;54.25;22.87;;;;;;;5.40;68.26;98774.47;4455483;32;34266;-78
2021/12/05 17:19:04;;;;;;;62.70;26.05;;;;;;;5.44;68.08;98781.19;4468312;32;34480;-77
2021/12/05 17:21:36;;;;;;;46.75;23.98;;;;;;;5.45;68.14;98784.75;4442860;32;32098;-78
2021/12/05 17:24:14;;;;;;;54.08;24.45;;;;;;;5.54;67.65;98780.84;4468207;32;32996;-77